Time;durP1;ratioP1;P1;durP2;ratioP2;P2;SDS_P1;SDS_P2;PMS_P1;PMS_P2;Temp;Humidity;BMP_temperature;BMP_pressure;BME280_temperature;BME280_humidity;BME280_pressure;Samples;Min_cycle;Max_cycle;Signal;HPM_P1;HPM_P2
2023/03/27 00:01:10;;;;;;;2.37;1.40;;;11.20;73.20;;;;;;5030844;28;20185;-48
2023/03/27 00:03:36;;;;;;;2.40;1.53;;;11.30;73.40;;;;;;5026625;28;20736;-48
2023/03/27 00:06:08;;;;;;;1.30;1.20;;;11.20;73.60;;;;;;5027913;28;20447;-45
2023/03/27 00:08:35;;;;;;;1.30;1.00;;;11.00;75.00;;;;;;5023844;28;20947;-48
2023/03/27 00:11:01;;;;;;;4.60;1.43;;;11.00;75.70;;;;;;5040693;28;20456;-50
2023/03/27 00:13:28;;;;;;;1.60;1.50;;;11.10;75.60;;;;;;5023627;28;20523;-48
2023/03/27 00:15:55;;;;;;;1.30;1.20;;;11.10;75.90;;;;;;5025256;28;20440;-50
2023/03/27 00:18:22;;;;;;;1.20;1.20;;;11.20;74.90;;;;;;5015139;28;20444;-50
2023/03/27 00:20:48;;;;;;;1.10;1.00;;;11.20;75.00;;;;;;5021890;28;20522;-51
2023/03/27 00:23:13;;;;;;;1.47;1.00;;;11.20;75.50;;;;;;5024975;28;20957;-46
2023/03/27 00:25:39;;;;;;;0.80;0.80;;;11.00;75.80;;;;;;5021352;28;20440;-48
2023/03/27 00:28:07;;;;;;;1.37;1.27;;;11.10;76.50;;;;;;5020718;28;20193;-46
2023/03/27 00:30:34;;;;;;;1.53;1.43;;;10.80;78.00;;;;;;5018603;28;20488;-50
2023/03/27 00:33:00;;;;;;;1.30;1.20;;;10.90;77.10;;;;;;5020213;28;20541;-50
2023/03/27 00:35:28;;;;;;;1.20;1.10;;;11.10;75.20;;;;;;5016976;28;20800;-49
2023/03/27 00:37:54;;;;;;;1.27;1.17;;;11.10;74.60;;;;;;5028933;28;20450;-50
2023/03/27 00:40:21;;;;;;;0.90;0.90;;;11.10;74.50;;;;;;5031735;28;20523;-50
2023/03/27 00:42:50;;;;;;;1.53;1.30;;;11.20;74.60;;;;;;5036681;28;20482;-48
2023/03/27 00:45:25;;;;;;;1.27;1.27;;;11.10;74.00;;;;;;5030196;28;20462;-47
2023/03/27 00:47:58;;;;;;;2.30;1.40;;;11.00;74.20;;;;;;5029576;28;20436;-45
2023/03/27 00:50:29;;;;;;;1.53;1.33;;;11.10;74.10;;;;;;5042995;28;20523;-45
2023/03/27 00:53:00;;;;;;;1.23;1.17;;;11.10;73.40;;;;;;5029750;28;20777;-46
2023/03/27 00:55:28;;;;;;;1.20;1.10;;;11.10;73.50;;;;;;5029752;28;20480;-45
2023/03/27 00:58:02;;;;;;;1.00;1.00;;;10.90;73.60;;;;;;5024083;28;20458;-45
2023/03/27 01:00:28;;;;;;;1.37;0.80;;;10.90;73.80;;;;;;5033394;28;20463;-46
2023/03/27 01:02:54;;;;;;;3.97;0.90;;;10.70;72.10;;;;;;5031578;28;20523;-45
2023/03/27 01:05:20;;;;;;;0.97;0.90;;;10.60;71.70;;;;;;5033726;28;20431;-45
2023/03/27 01:07:49;;;;;;;0.80;0.80;;;10.70;71.20;;;;;;5035577;28;20442;-46
2023/03/27 01:10:16;;;;;;;1.50;0.80;;;10.60;69.70;;;;;;5027165;28;20518;-49
2023/03/27 01:13:06;;;;;;;0.67;0.67;;;10.80;69.60;;;;;;5026804;28;20451;-45
2023/03/27 01:15:42;;;;;;;0.80;0.80;;;10.70;67.60;;;;;;5029554;28;20448;-45
2023/03/27 01:18:26;;;;;;;1.30;0.90;;;10.50;67.60;;;;;;5011564;28;20460;-48
2023/03/27 01:21:19;;;;;;;1.20;1.10;;;10.30;67.00;;;;;;5027412;28;20441;-48
2023/03/27 01:24:07;;;;;;;0.80;0.80;;;10.00;66.70;;;;;;5027044;28;21195;-45
2023/03/27 01:26:42;;;;;;;1.63;1.00;;;9.90;69.10;;;;;;5023331;28;20446;-46
2023/03/27 01:29:14;;;;;;;1.07;1.07;;;9.90;68.20;;;;;;5028482;28;20509;-48
2023/03/27 01:31:52;;;;;;;1.93;0.90;;;10.00;67.70;;;;;;5022897;28;20868;-47
2023/03/27 01:34:41;;;;;;;1.00;1.00;;;9.90;68.80;;;;;;5022582;28;20543;-45
2023/03/27 01:37:52;;;;;;;1.50;1.07;;;10.00;69.50;;;;;;5024610;28;20459;-48
2023/03/27 01:40:35;;;;;;;1.33;1.23;;;10.30;67.50;;;;;;4974239;28;20482;-48
2023/03/27 01:43:12;;;;;;;0.90;0.90;;;10.30;66.20;;;;;;5024793;28;20563;-48
2023/03/27 01:45:47;;;;;;;1.43;1.33;;;10.40;66.60;;;;;;5021604;28;20436;-47
2023/03/27 01:48:21;;;;;;;1.57;1.40;;;10.40;65.70;;;;;;5030185;28;20473;-50
2023/03/27 01:50:51;;;;;;;2.20;1.30;;;10.40;65.50;;;;;;5030455;28;20460;-49
2023/03/27 01:53:38;;;;;;;1.10;1.10;;;10.30;65.50;;;;;;5026230;28;20522;-49
2023/03/27 01:56:30;;;;;;;1.83;1.27;;;10.30;65.70;;;;;;5030324;28;20478;-50
2023/03/27 01:59:05;;;;;;;2.73;1.70;;;10.30;65.80;;;;;;5029763;28;20475;-49
2023/03/27 02:01:36;;;;;;;1.37;1.13;;;10.50;64.80;;;;;;5029983;28;20436;-50
2023/03/27 02:04:05;;;;;;;2.40;1.77;;;10.40;64.50;;;;;;5031229;28;20495;-50
2023/03/27 02:06:39;;;;;;;1.77;1.67;;;10.30;65.10;;;;;;5030380;28;20885;-50
2023/03/27 02:09:12;;;;;;;1.70;1.60;;;10.20;65.10;;;;;;5023822;28;20479;-50
2023/03/27 02:11:45;;;;;;;2.13;1.90;;;10.10;65.40;;;;;;5030770;28;20510;-50
2023/03/27 02:14:21;;;;;;;1.80;1.67;;;10.00;65.10;;;;;;5030182;28;20447;-51
2023/03/27 02:16:53;;;;;;;1.60;1.50;;;10.20;65.40;;;;;;5029608;28;20435;-48
2023/03/27 02:19:33;;;;;;;1.80;1.70;;;10.00;65.00;;;;;;5030347;28;20440;-50
2023/03/27 02:21:59;;;;;;;5.10;1.70;;;10.10;65.60;;;;;;5027904;28;20496;-47
2023/03/27 02:24:25;;;;;;;2.10;1.70;;;9.90;66.30;;;;;;5030179;28;20486;-48
2023/03/27 02:26:58;;;;;;;1.73;1.60;;;9.90;66.70;;;;;;5029239;28;20877;-50
2023/03/27 02:30:01;;;;;;;3.43;1.60;;;9.90;67.20;;;;;;5029606;28;20613;-50
2023/03/27 02:32:44;;;;;;;3.00;1.60;;;10.10;66.20;;;;;;5019416;28;20452;-48
2023/03/27 02:35:44;;;;;;;2.00;1.80;;;10.20;66.20;;;;;;5030227;28;20944;-48
2023/03/27 02:38:16;;;;;;;1.90;1.80;;;10.10;66.40;;;;;;5030059;28;20448;-49
2023/03/27 02:41:06;;;;;;;1.80;1.70;;;10.10;66.10;;;;;;5030898;28;20451;-47
2023/03/27 02:43:55;;;;;;;1.93;1.70;;;10.10;65.90;;;;;;5028601;28;20456;-45
2023/03/27 02:46:46;;;;;;;1.80;1.70;;;9.90;67.20;;;;;;5027794;28;20499;-49
2023/03/27 02:49:22;;;;;;;2.13;1.40;;;9.80;67.70;;;;;;5023091;28;20480;-51
2023/03/27 02:51:58;;;;;;;1.90;1.77;;;9.90;68.20;;;;;;5030157;28;20474;-50
2023/03/27 02:54:33;;;;;;;2.30;1.30;;;10.10;66.60;;;;;;5030669;28;20446;-49
2023/03/27 02:57:05;;;;;;;1.77;1.67;;;10.10;66.60;;;;;;5029316;28;20478;-50
2023/03/27 02:59:39;;;;;;;1.77;1.67;;;10.00;66.50;;;;;;5029317;28;20531;-49
2023/03/27 03:02:09;;;;;;;2.57;2.00;;;10.00;67.00;;;;;;5028738;28;20478;-46
2023/03/27 03:04:45;;;;;;;2.57;2.20;;;9.90;68.40;;;;;;5031085;28;20428;-50
2023/03/27 03:07:13;;;;;;;2.60;2.37;;;9.70;69.40;;;;;;5029822;28;20551;-50
2023/03/27 03:09:39;;;;;;;7.53;2.77;;;9.60;70.30;;;;;;5022959;28;20488;-48
2023/03/27 03:12:05;;;;;;;6.27;3.03;;;9.60;69.80;;;;;;5022050;28;20964;-49
2023/03/27 03:14:34;;;;;;;6.40;2.97;;;9.40;69.50;;;;;;5021687;28;20440;-47
2023/03/27 03:16:59;;;;;;;4.07;2.27;;;9.50;70.10;;;;;;5016399;28;20220;-50
2023/03/27 03:19:25;;;;;;;5.30;2.53;;;9.30;68.50;;;;;;5018794;28;20502;-46
2023/03/27 03:21:50;;;;;;;4.03;2.60;;;9.40;68.80;;;;;;5022532;28;20208;-48
2023/03/27 03:24:17;;;;;;;3.07;2.20;;;9.30;67.90;;;;;;5021040;28;20308;-45
2023/03/27 03:26:44;;;;;;;8.10;2.47;;;9.50;67.80;;;;;;5018493;28;20216;-49
2023/03/27 03:29:10;;;;;;;8.07;2.80;;;9.70;67.10;;;;;;5022792;28;20491;-45
2023/03/27 03:31:42;;;;;;;4.63;1.80;;;9.60;66.90;;;;;;5027572;28;20460;-48
2023/03/27 03:34:09;;;;;;;8.53;2.50;;;9.40;65.00;;;;;;5021169;28;20452;-49
2023/03/27 03:36:35;;;;;;;5.10;2.10;;;9.20;64.40;;;;;;5018548;28;20510;-50
2023/03/27 03:39:01;;;;;;;2.93;2.10;;;9.10;64.40;;;;;;5021110;28;20449;-47
2023/03/27 03:41:27;;;;;;;7.20;1.90;;;9.10;64.50;;;;;;5019219;28;20196;-50
2023/03/27 03:43:52;;;;;;;5.00;1.90;;;9.20;64.10;;;;;;5025074;28;20448;-47
2023/03/27 03:46:18;;;;;;;4.60;1.57;;;9.10;63.80;;;;;;5016722;28;20201;-48
2023/03/27 03:48:43;;;;;;;6.10;2.37;;;8.90;64.10;;;;;;5020538;28;20288;-48
2023/03/27 03:51:09;;;;;;;6.03;2.20;;;9.00;64.80;;;;;;5016677;28;20201;-46
2023/03/27 03:53:35;;;;;;;5.20;2.53;;;9.10;65.00;;;;;;5019382;28;20722;-45
2023/03/27 03:56:00;;;;;;;2.33;2.10;;;9.30;64.20;;;;;;5022172;28;20304;-48
2023/03/27 03:58:26;;;;;;;3.73;2.40;;;9.40;63.90;;;;;;5026899;28;21368;-48
2023/03/27 04:00:53;;;;;;;2.30;1.80;;;9.50;63.80;;;;;;5019440;28;20251;-47
2023/03/27 04:03:19;;;;;;;5.67;2.50;;;9.60;63.40;;;;;;5022285;28;20204;-49
2023/03/27 04:05:45;;;;;;;4.43;2.03;;;9.70;63.30;;;;;;5029490;28;20452;-47
2023/03/27 04:08:11;;;;;;;3.67;2.37;;;9.60;62.80;;;;;;5012557;28;20785;-49
2023/03/27 04:10:38;;;;;;;5.57;2.47;;;9.50;63.20;;;;;;5025952;28;20526;-50
2023/03/27 04:13:05;;;;;;;8.27;2.17;;;9.40;63.30;;;;;;5039446;28;20443;-49
2023/03/27 04:15:31;;;;;;;3.67;2.10;;;9.50;63.50;;;;;;5020191;28;20467;-47
2023/03/27 04:17:57;;;;;;;7.20;2.53;;;9.40;64.30;;;;;;5020540;28;20447;-48
2023/03/27 04:20:25;;;;;;;4.13;2.10;;;9.40;63.90;;;;;;5019466;28;20443;-49
2023/03/27 04:22:53;;;;;;;6.70;2.87;;;9.50;64.30;;;;;;5022008;28;20211;-45
2023/03/27 04:25:21;;;;;;;6.67;3.00;;;9.70;63.90;;;;;;5014040;28;20445;-46
2023/03/27 04:27:50;;;;;;;5.23;3.77;;;9.70;63.90;;;;;;5021429;28;20534;-45
2023/03/27 04:30:21;;;;;;;6.20;2.80;;;9.70;63.70;;;;;;5033586;28;21025;-49
2023/03/27 04:32:48;;;;;;;10.80;3.07;;;9.50;62.60;;;;;;5020330;28;20919;-46
2023/03/27 04:35:14;;;;;;;10.67;2.90;;;9.30;62.50;;;;;;5016924;28;20458;-48
2023/03/27 04:37:41;;;;;;;4.73;2.90;;;9.20;62.80;;;;;;5024612;28;20440;-48
2023/03/27 04:40:09;;;;;;;5.17;3.33;;;9.00;62.70;;;;;;5029095;28;20489;-47
2023/03/27 04:42:42;;;;;;;10.67;3.27;;;9.00;62.90;;;;;;5011379;28;20447;-47
2023/03/27 04:45:22;;;;;;;8.37;3.07;;;9.10;63.40;;;;;;5029334;28;20482;-47
2023/03/27 04:47:47;;;;;;;6.13;3.27;;;9.00;63.30;;;;;;5029154;28;20440;-47
2023/03/27 04:50:14;;;;;;;8.10;3.07;;;8.90;63.60;;;;;;5028771;28;20518;-51
2023/03/27 04:52:40;;;;;;;8.33;3.30;;;8.90;63.70;;;;;;5029807;28;20185;-47
2023/03/27 04:55:07;;;;;;;7.10;2.87;;;8.90;64.70;;;;;;5029026;28;20489;-47
2023/03/27 04:57:33;;;;;;;8.10;3.30;;;9.00;64.20;;;;;;5029293;28;20789;-45
2023/03/27 05:00:00;;;;;;;5.40;3.33;;;9.00;63.60;;;;;;5028721;28;20448;-50
2023/03/27 05:02:26;;;;;;;16.57;3.13;;;9.10;63.70;;;;;;5028295;28;20436;-47
2023/03/27 05:04:57;;;;;;;7.67;3.03;;;9.10;63.10;;;;;;5027918;28;20475;-47
2023/03/27 05:07:24;;;;;;;9.43;3.03;;;9.10;61.90;;;;;;5022919;28;21254;-47
2023/03/27 05:09:50;;;;;;;8.10;2.70;;;8.80;61.80;;;;;;5021276;28;20479;-49
2023/03/27 05:12:15;;;;;;;9.90;3.80;;;8.70;62.70;;;;;;5023636;28;20493;-46
2023/03/27 05:14:41;;;;;;;7.10;2.53;;;8.80;62.50;;;;;;5020305;28;20193;-48
2023/03/27 05:17:08;;;;;;;5.57;2.23;;;8.90;61.60;;;;;;5019074;28;20197;-47
2023/03/27 05:19:34;;;;;;;6.63;2.53;;;8.90;61.40;;;;;;5018208;28;20661;-47
2023/03/27 05:21:59;;;;;;;8.13;2.40;;;8.90;61.30;;;;;;5023477;28;20439;-49
2023/03/27 05:24:25;;;;;;;11.57;2.53;;;9.00;61.20;;;;;;5017641;28;20450;-48
2023/03/27 05:26:51;;;;;;;10.07;2.40;;;9.10;60.70;;;;;;5019626;28;20193;-46
2023/03/27 05:29:17;;;;;;;5.03;2.17;;;8.90;60.20;;;;;;5019534;28;20500;-50
2023/03/27 05:31:43;;;;;;;5.97;1.97;;;9.00;60.60;;;;;;5024500;28;20721;-46
2023/03/27 05:34:09;;;;;;;7.70;1.63;;;9.00;60.30;;;;;;5017129;28;20542;-46
2023/03/27 05:36:34;;;;;;;10.57;2.57;;;8.90;59.80;;;;;;5027015;28;20528;-49
2023/03/27 05:39:00;;;;;;;8.93;2.13;;;8.80;59.80;;;;;;5019491;28;20297;-47
2023/03/27 05:41:26;;;;;;;4.10;2.77;;;8.80;59.70;;;;;;5018865;28;20276;-45
2023/03/27 05:43:52;;;;;;;5.83;2.50;;;8.50;59.30;;;;;;5022802;28;20998;-46
2023/03/27 05:46:18;;;;;;;8.07;2.70;;;8.30;59.90;;;;;;5034197;28;20189;-49
2023/03/27 05:48:43;;;;;;;7.63;2.50;;;8.30;59.90;;;;;;5030318;28;20474;-47
2023/03/27 05:51:09;;;;;;;10.73;2.30;;;8.30;59.80;;;;;;5028990;28;20213;-45
2023/03/27 05:53:38;;;;;;;7.50;2.57;;;8.30;60.70;;;;;;5024485;28;20892;-46
2023/03/27 05:56:05;;;;;;;9.07;2.00;;;8.20;59.40;;;;;;5026074;28;20256;-46
2023/03/27 05:58:30;;;;;;;5.60;2.10;;;8.00;59.50;;;;;;5030807;28;20466;-49
2023/03/27 06:00:57;;;;;;;4.50;2.17;;;8.00;59.80;;;;;;5037840;28;20475;-46
2023/03/27 06:03:23;;;;;;;10.70;2.13;;;8.20;59.60;;;;;;5027338;28;20449;-44
2023/03/27 06:05:49;;;;;;;6.23;1.83;;;8.20;59.70;;;;;;5029468;28;20621;-45
2023/03/27 06:08:15;;;;;;;9.57;2.43;;;8.20;59.60;;;;;;5024920;28;20202;-48
2023/03/27 06:10:42;;;;;;;4.40;2.13;;;8.40;59.30;;;;;;5028363;28;21075;-49
2023/03/27 06:13:12;;;;;;;4.23;2.07;;;8.30;58.20;;;;;;5030542;28;20816;-45
2023/03/27 06:15:40;;;;;;;7.73;4.20;;;8.30;58.80;;;;;;5030616;28;20450;-48
2023/03/27 06:18:07;;;;;;;5.50;3.10;;;8.30;58.90;;;;;;5030022;28;20436;-44
2023/03/27 06:20:34;;;;;;;9.47;2.30;;;8.50;58.00;;;;;;5029829;28;20494;-47
2023/03/27 06:23:02;;;;;;;3.10;1.93;;;8.60;58.50;;;;;;5031616;28;20444;-46
2023/03/27 06:25:33;;;;;;;13.67;2.53;;;8.40;58.10;;;;;;5031248;28;20454;-44
2023/03/27 06:28:00;;;;;;;6.80;1.90;;;8.20;57.90;;;;;;5032107;28;20450;-47
2023/03/27 06:30:27;;;;;;;11.10;2.70;;;8.20;58.10;;;;;;5029528;28;20495;-44
2023/03/27 06:32:59;;;;;;;5.23;1.97;;;8.20;58.00;;;;;;5031244;28;20903;-48
2023/03/27 06:35:27;;;;;;;2.67;1.70;;;8.20;57.70;;;;;;5029154;28;20494;-45
2023/03/27 06:37:54;;;;;;;3.03;1.80;;;8.20;57.80;;;;;;5033081;28;20506;-45
2023/03/27 06:40:23;;;;;;;7.27;2.17;;;7.90;57.30;;;;;;5037267;28;20522;-48
2023/03/27 06:43:09;;;;;;;6.50;1.50;;;7.90;58.20;;;;;;5028036;28;20527;-46
2023/03/27 06:45:43;;;;;;;7.10;2.23;;;8.10;58.20;;;;;;5049925;28;20489;-46
2023/03/27 06:48:09;;;;;;;5.17;1.87;;;8.00;57.40;;;;;;5034727;28;20461;-49
2023/03/27 06:50:35;;;;;;;4.60;2.00;;;8.20;57.40;;;;;;5028649;28;20488;-46
2023/03/27 06:53:02;;;;;;;4.67;1.90;;;8.20;56.90;;;;;;5031516;28;20448;-48
2023/03/27 06:55:30;;;;;;;10.60;2.27;;;8.20;56.60;;;;;;5031059;28;20499;-46
2023/03/27 06:57:57;;;;;;;11.83;2.33;;;8.10;56.40;;;;;;5030673;28;20440;-49
2023/03/27 07:00:27;;;;;;;2.50;1.73;;;7.90;56.40;;;;;;5032415;28;20428;-46
2023/03/27 07:02:58;;;;;;;10.63;2.30;;;7.80;56.90;;;;;;5031219;28;20439;-45
2023/03/27 07:05:25;;;;;;;5.17;1.93;;;8.00;56.90;;;;;;5030757;28;20447;-46
2023/03/27 07:07:51;;;;;;;3.47;1.50;;;8.30;56.70;;;;;;5032096;28;20430;-45
2023/03/27 07:10:17;;;;;;;6.70;2.37;;;8.30;56.00;;;;;;5032167;28;20483;-46
2023/03/27 07:12:50;;;;;;;3.57;1.60;;;8.20;56.00;;;;;;5030898;28;20969;-45
2023/03/27 07:15:17;;;;;;;8.67;2.03;;;8.00;56.20;;;;;;5031724;28;20460;-46
2023/03/27 07:17:44;;;;;;;6.97;2.03;;;8.20;56.80;;;;;;5031894;28;20416;-45
2023/03/27 07:20:11;;;;;;;10.50;2.80;;;8.10;55.80;;;;;;5030271;28;20452;-46
2023/03/27 07:22:36;;;;;;;10.37;2.43;;;8.00;55.60;;;;;;5029872;28;20935;-46
2023/03/27 07:25:03;;;;;;;7.40;1.80;;;7.80;55.50;;;;;;5026733;28;20452;-46
2023/03/27 07:27:29;;;;;;;10.73;3.03;;;7.90;56.00;;;;;;5031752;28;20419;-45
2023/03/27 07:29:57;;;;;;;9.87;1.90;;;7.80;55.80;;;;;;5031612;28;20514;-46
2023/03/27 07:32:23;;;;;;;7.27;2.40;;;8.00;56.10;;;;;;5031711;28;20205;-46
2023/03/27 07:34:49;;;;;;;4.20;2.20;;;8.00;55.60;;;;;;5029649;28;20939;-46
2023/03/27 07:37:15;;;;;;;3.10;2.00;;;8.00;56.20;;;;;;5029740;28;20829;-46
2023/03/27 07:39:40;;;;;;;2.20;1.50;;;8.30;55.60;;;;;;5031712;28;20197;-46
2023/03/27 07:42:07;;;;;;;5.90;1.70;;;8.30;54.60;;;;;;5031657;28;20213;-48
2023/03/27 07:44:33;;;;;;;4.30;1.60;;;8.40;54.90;;;;;;5030936;28;20273;-46
2023/03/27 07:46:59;;;;;;;7.60;2.00;;;8.40;55.20;;;;;;5031241;28;20878;-47
2023/03/27 07:49:25;;;;;;;6.33;1.83;;;8.30;55.10;;;;;;5023182;28;20220;-46
2023/03/27 07:51:52;;;;;;;5.03;2.00;;;8.30;54.50;;;;;;5022436;28;20440;-47
2023/03/27 07:54:20;;;;;;;8.97;1.77;;;8.40;55.30;;;;;;5029316;28;20444;-46
2023/03/27 07:56:46;;;;;;;3.97;1.73;;;8.60;54.70;;;;;;5026972;28;20483;-45
2023/03/27 07:59:12;;;;;;;5.43;1.93;;;8.70;54.30;;;;;;5023129;28;21042;-46
2023/03/27 08:01:38;;;;;;;12.03;2.43;;;8.70;53.60;;;;;;5025592;28;20536;-46
2023/03/27 08:04:04;;;;;;;6.00;1.53;;;8.70;53.70;;;;;;5025340;28;20200;-47
2023/03/27 08:06:29;;;;;;;5.13;2.07;;;8.90;54.00;;;;;;5026142;28;20557;-48
2023/03/27 08:08:55;;;;;;;6.00;1.40;;;9.00;53.50;;;;;;5038719;28;20474;-48
2023/03/27 08:11:21;;;;;;;2.70;1.60;;;9.20;53.50;;;;;;5030288;28;20565;-47
2023/03/27 08:13:47;;;;;;;5.90;1.60;;;9.30;52.40;;;;;;5027886;28;20447;-47
2023/03/27 08:16:16;;;;;;;3.43;1.87;;;9.40;52.70;;;;;;5027832;28;20489;-47
2023/03/27 08:18:42;;;;;;;7.37;1.93;;;9.60;52.90;;;;;;5022402;28;20197;-46
2023/03/27 08:21:09;;;;;;;4.03;1.60;;;9.80;52.40;;;;;;5033646;28;20805;-50
2023/03/27 08:23:36;;;;;;;5.73;1.93;;;9.80;51.30;;;;;;5037713;28;21473;-46
2023/03/27 08:26:02;;;;;;;3.87;1.53;;;9.70;51.00;;;;;;5024366;28;20534;-44
2023/03/27 08:28:33;;;;;;;5.03;1.93;;;9.80;51.60;;;;;;5030805;28;20826;-46
2023/03/27 08:31:01;;;;;;;7.30;1.67;;;9.80;50.80;;;;;;5025612;28;20448;-46
2023/03/27 08:33:27;;;;;;;3.50;2.00;;;9.90;50.60;;;;;;5027105;28;20490;-46
2023/03/27 08:35:56;;;;;;;5.33;2.20;;;10.00;51.00;;;;;;5027272;28;20855;-46
2023/03/27 08:38:22;;;;;;;3.60;1.90;;;10.10;49.60;;;;;;5023464;28;20197;-47
2023/03/27 08:40:52;;;;;;;4.93;1.70;;;10.10;48.60;;;;;;5016154;28;20943;-46
2023/03/27 08:43:21;;;;;;;4.20;1.80;;;9.80;49.40;;;;;;5021647;28;20450;-45
2023/03/27 08:45:55;;;;;;;5.20;2.10;;;10.10;50.60;;;;;;5020983;28;20780;-46
2023/03/27 08:48:31;;;;;;;4.67;2.03;;;10.30;49.20;;;;;;5021603;28;20464;-44
2023/03/27 08:51:06;;;;;;;7.80;2.43;;;10.30;48.40;;;;;;5025910;28;20525;-48
2023/03/27 08:53:38;;;;;;;3.90;1.87;;;10.50;49.20;;;;;;5028243;28;20443;-47
2023/03/27 08:56:04;;;;;;;8.03;2.27;;;10.80;48.00;;;;;;5022939;28;20475;-46
2023/03/27 08:58:31;;;;;;;2.53;1.53;;;11.10;47.20;;;;;;5023296;28;20850;-50
2023/03/27 09:01:03;;;;;;;4.17;1.70;;;11.10;47.60;;;;;;5026461;28;20943;-46
2023/03/27 09:04:11;;;;;;;8.50;2.23;;;11.30;46.70;;;;;;5023414;28;21242;-47
2023/03/27 09:07:05;;;;;;;1.93;1.40;;;11.40;45.80;;;;;;4944435;28;20451;-47
2023/03/27 09:09:57;;;;;;;4.10;1.70;;;11.50;46.00;;;;;;5020786;28;20528;-46
2023/03/27 09:12:29;;;;;;;4.47;1.83;;;11.60;45.70;;;;;;5024091;28;20472;-47
2023/03/27 09:15:03;;;;;;;8.63;1.87;;;11.80;45.60;;;;;;5025536;28;20542;-48
2023/03/27 09:17:42;;;;;;;4.90;1.73;;;11.60;44.70;;;;;;5026342;28;20443;-48
2023/03/27 09:20:22;;;;;;;3.57;1.87;;;11.30;45.00;;;;;;5022390;28;20947;-49
2023/03/27 09:23:17;;;;;;;3.47;1.40;;;11.40;46.30;;;;;;5028782;28;20448;-47
2023/03/27 09:25:51;;;;;;;4.37;2.30;;;11.60;45.70;;;;;;5020598;28;20451;-46
2023/03/27 09:28:28;;;;;;;3.50;1.50;;;11.60;45.50;;;;;;5037697;28;20454;-45
2023/03/27 09:30:54;;;;;;;4.80;1.77;;;11.80;45.40;;;;;;5030373;28;20534;-46
2023/03/27 09:33:20;;;;;;;2.50;1.70;;;11.80;44.90;;;;;;5033379;28;20539;-46
2023/03/27 09:35:46;;;;;;;5.43;1.67;;;11.80;44.90;;;;;;5033827;28;20247;-49
2023/03/27 09:38:27;;;;;;;5.40;1.73;;;11.80;45.10;;;;;;5036396;28;20572;-46
2023/03/27 09:41:23;;;;;;;7.03;1.70;;;11.70;43.30;;;;;;5027434;28;20443;-49
2023/03/27 09:44:04;;;;;;;3.80;1.60;;;11.60;43.90;;;;;;5001379;28;20463;-46
2023/03/27 09:46:43;;;;;;;2.70;1.27;;;11.80;45.20;;;;;;5030290;28;20589;-48
2023/03/27 09:49:13;;;;;;;2.73;1.47;;;12.30;45.60;;;;;;5030298;28;20841;-46
2023/03/27 09:51:41;;;;;;;4.13;1.60;;;12.60;44.50;;;;;;5015681;28;20458;-46
2023/03/27 09:54:07;;;;;;;3.10;1.40;;;12.70;44.50;;;;;;5028604;28;20449;-42
2023/03/27 09:56:43;;;;;;;2.13;1.30;;;12.80;42.00;;;;;;5024747;28;20506;-44
2023/03/27 09:59:55;;;;;;;4.30;1.13;;;12.60;40.90;;;;;;5026367;28;20501;-44
2023/03/27 10:02:23;;;;;;;8.63;2.23;;;12.70;41.40;;;;;;5020423;28;20470;-45
2023/03/27 10:05:15;;;;;;;6.10;1.50;;;12.80;42.00;;;;;;5030025;28;20456;-48
2023/03/27 10:07:41;;;;;;;2.70;1.50;;;13.00;41.80;;;;;;5030100;28;20487;-49
2023/03/27 10:10:14;;;;;;;3.00;1.70;;;13.00;41.00;;;;;;5023287;28;20491;-45
2023/03/27 10:12:41;;;;;;;6.07;1.63;;;12.90;40.70;;;;;;5020323;28;20522;-48
2023/03/27 10:15:30;;;;;;;4.90;2.13;;;12.80;40.40;;;;;;5028669;28;22519;-45
2023/03/27 10:17:57;;;;;;;6.23;1.70;;;12.70;41.00;;;;;;5028298;28;20456;-47
2023/03/27 10:20:23;;;;;;;2.90;2.10;;;12.90;41.50;;;;;;5029841;28;20448;-47
2023/03/27 10:22:58;;;;;;;3.97;1.50;;;13.10;40.90;;;;;;5029909;28;20444;-49
2023/03/27 10:25:34;;;;;;;8.20;1.30;;;13.10;39.50;;;;;;5024798;28;20882;-46
2023/03/27 10:28:27;;;;;;;3.53;1.50;;;13.20;38.90;;;;;;5027001;28;20498;-50
2023/03/27 10:30:58;;;;;;;1.77;1.20;;;13.40;38.70;;;;;;5026593;28;20490;-50
2023/03/27 10:33:32;;;;;;;5.00;1.77;;;13.40;38.80;;;;;;5030203;28;20809;-51
2023/03/27 10:35:59;;;;;;;4.70;1.30;;;13.40;38.20;;;;;;5030264;28;20797;-45
2023/03/27 10:38:26;;;;;;;4.83;1.80;;;13.60;39.10;;;;;;5020787;28;20445;-44
2023/03/27 10:40:54;;;;;;;2.03;1.37;;;13.90;39.10;;;;;;5026699;28;20505;-49
2023/03/27 10:43:32;;;;;;;3.13;1.30;;;14.20;39.10;;;;;;5031474;28;21082;-49
2023/03/27 10:46:04;;;;;;;5.43;1.70;;;14.40;35.90;;;;;;5029709;28;20455;-49
2023/03/27 10:48:59;;;;;;;2.20;1.07;;;14.30;35.80;;;;;;5027711;28;20454;-50
2023/03/27 10:52:02;;;;;;;3.03;1.20;;;14.30;35.00;;;;;;5023756;28;20452;-46
2023/03/27 10:55:03;;;;;;;2.83;1.30;;;14.20;34.30;;;;;;5021306;28;20474;-48
2023/03/27 10:57:31;;;;;;;3.67;1.50;;;14.30;35.50;;;;;;5015237;28;20815;-46
2023/03/27 11:00:35;;;;;;;5.87;1.67;;;14.30;35.50;;;;;;5048371;28;20497;-49
2023/03/27 11:03:22;;;;;;;1.60;1.10;;;14.10;35.70;;;;;;5009312;28;20837;-45
2023/03/27 11:05:52;;;;;;;2.77;1.37;;;13.80;35.40;;;;;;5047405;28;20816;-45
2023/03/27 11:08:26;;;;;;;2.40;1.27;;;13.90;34.40;;;;;;5054265;28;20872;-48
2023/03/27 11:10:56;;;;;;;4.80;1.67;;;14.20;35.50;;;;;;5048728;28;20489;-48
2023/03/27 11:13:28;;;;;;;3.57;1.40;;;14.30;36.20;;;;;;5048667;28;20822;-45
2023/03/27 11:16:10;;;;;;;2.13;1.67;;;14.60;33.80;;;;;;5048279;28;20477;-46
2023/03/27 11:18:40;;;;;;;2.97;1.50;;;14.30;30.70;;;;;;5049795;28;20439;-48
2023/03/27 11:21:13;;;;;;;4.83;1.50;;;14.30;33.30;;;;;;5049465;28;20968;-48
2023/03/27 11:23:50;;;;;;;3.30;1.70;;;14.40;34.30;;;;;;5049705;28;20447;-48
2023/03/27 11:26:18;;;;;;;2.43;1.17;;;14.80;33.70;;;;;;5047833;28;20966;-45
2023/03/27 11:29:04;;;;;;;5.50;2.57;;;15.00;34.70;;;;;;5050251;28;20450;-50
2023/03/27 11:31:39;;;;;;;2.03;1.40;;;14.80;33.70;;;;;;5045507;28;20538;-50
2023/03/27 11:34:35;;;;;;;3.80;1.50;;;14.60;33.70;;;;;;5049107;28;20443;-47
2023/03/27 11:37:06;;;;;;;5.20;1.67;;;14.30;33.90;;;;;;5047739;28;20447;-47
2023/03/27 11:39:40;;;;;;;2.63;1.57;;;14.00;35.40;;;;;;5048433;28;20450;-50
2023/03/27 11:42:17;;;;;;;2.97;1.40;;;14.10;34.90;;;;;;5048359;28;20457;-45
2023/03/27 11:44:43;;;;;;;6.00;1.63;;;14.10;34.60;;;;;;5049812;28;20529;-47
2023/03/27 11:47:11;;;;;;;2.97;1.40;;;14.00;35.50;;;;;;5046764;28;20445;-46
2023/03/27 11:50:19;;;;;;;2.57;1.10;;;14.10;35.00;;;;;;5049938;28;20513;-48
2023/03/27 11:53:23;;;;;;;2.70;1.40;;;14.30;33.90;;;;;;5020226;28;22210;-47
2023/03/27 11:56:22;;;;;;;2.40;1.20;;;14.60;33.40;;;;;;5042429;28;20977;-46
2023/03/27 11:59:09;;;;;;;3.73;1.60;;;14.90;34.00;;;;;;5044669;28;21146;-48
2023/03/27 12:02:05;;;;;;;6.83;1.63;;;15.20;33.80;;;;;;5043058;28;20461;-50
2023/03/27 12:04:54;;;;;;;5.60;1.60;;;15.00;32.10;;;;;;5036286;28;20455;-50
2023/03/27 12:07:53;;;;;;;2.87;1.50;;;15.00;33.10;;;;;;5052784;28;20458;-48
2023/03/27 12:10:34;;;;;;;2.50;1.33;;;15.40;34.00;;;;;;5026667;28;20562;-46
2023/03/27 12:13:08;;;;;;;2.57;1.00;;;15.40;33.50;;;;;;5048437;28;20790;-46
2023/03/27 12:15:43;;;;;;;5.90;1.30;;;15.30;31.80;;;;;;5047747;28;20435;-47
2023/03/27 12:18:25;;;;;;;3.00;1.20;;;15.00;31.20;;;;;;5047068;28;20465;-49
2023/03/27 12:21:19;;;;;;;3.73;1.30;;;14.60;31.50;;;;;;5048485;28;20862;-49
2023/03/27 12:24:00;;;;;;;2.10;1.53;;;14.30;32.10;;;;;;5044207;28;20430;-48
2023/03/27 12:27:04;;;;;;;3.60;1.63;;;14.40;33.20;;;;;;5037372;28;20489;-49
2023/03/27 12:29:41;;;;;;;4.30;1.30;;;14.50;32.70;;;;;;5037712;28;20494;-49
2023/03/27 12:32:07;;;;;;;3.20;1.43;;;14.70;33.30;;;;;;5041067;28;20485;-47
2023/03/27 12:34:39;;;;;;;5.10;1.47;;;14.70;32.60;;;;;;5042590;28;20435;-49
2023/03/27 12:37:11;;;;;;;3.83;1.60;;;14.50;33.20;;;;;;5048575;28;20612;-49
2023/03/27 12:39:47;;;;;;;4.77;1.40;;;14.50;35.60;;;;;;5047490;28;20454;-46
2023/03/27 12:42:14;;;;;;;8.57;1.63;;;14.50;36.10;;;;;;5038403;28;20537;-50
2023/03/27 12:45:04;;;;;;;2.00;1.47;;;14.60;35.90;;;;;;5043430;28;20435;-49
2023/03/27 12:47:30;;;;;;;7.23;1.63;;;14.60;34.90;;;;;;5044776;28;20439;-49
2023/03/27 12:49:57;;;;;;;3.33;1.30;;;14.90;34.30;;;;;;5045174;28;20505;-46
2023/03/27 12:52:25;;;;;;;2.60;1.47;;;14.70;32.60;;;;;;5050225;28;20861;-48
2023/03/27 12:55:17;;;;;;;8.13;2.67;;;14.30;33.70;;;;;;5047710;28;20450;-46
2023/03/27 12:57:45;;;;;;;1.80;1.40;;;14.30;35.10;;;;;;4998827;28;20505;-47
2023/03/27 13:00:24;;;;;;;3.33;1.33;;;14.60;34.90;;;;;;5027666;28;20444;-45
2023/03/27 13:03:08;;;;;;;2.20;1.20;;;14.50;33.30;;;;;;5029631;28;20818;-47
2023/03/27 13:05:39;;;;;;;2.43;1.20;;;14.50;32.90;;;;;;5021949;28;20498;-46
2023/03/27 13:08:33;;;;;;;3.60;1.20;;;14.30;32.70;;;;;;5034351;28;20450;-48
2023/03/27 13:11:11;;;;;;;7.00;1.57;;;14.00;33.50;;;;;;5024006;28;21033;-46
2023/03/27 13:13:58;;;;;;;4.90;1.53;;;14.10;34.00;;;;;;5023898;28;20451;-49
2023/03/27 13:16:44;;;;;;;2.20;1.10;;;14.00;34.60;;;;;;5026949;28;20456;-49
2023/03/27 13:19:55;;;;;;;2.10;1.07;;;13.70;35.00;;;;;;5032473;28;20451;-46